createdAt,value
2018-08-13T00:00:02.456Z,0
2018-08-13T00:00:28.586Z,0
2018-08-13T00:00:54.760Z,0
2018-08-13T00:01:20.917Z,0
2018-08-13T00:01:47.061Z,0
2018-08-13T00:02:13.199Z,0
2018-08-13T00:02:39.362Z,0
2018-08-13T00:03:05.516Z,0
2018-08-13T00:03:31.652Z,0
2018-08-13T00:03:57.816Z,0
2018-08-13T00:04:23.958Z,0
2018-08-13T00:04:50.096Z,0
2018-08-13T00:05:16.219Z,0
2018-08-13T00:05:42.365Z,0
2018-08-13T00:06:08.491Z,0
2018-08-13T00:06:34.643Z,0
2018-08-13T00:07:00.777Z,0
2018-08-13T00:07:26.916Z,0
2018-08-13T00:07:53.053Z,0
2018-08-13T00:08:19.186Z,0
2018-08-13T00:08:45.318Z,0
2018-08-13T00:09:11.458Z,0
2018-08-13T00:09:37.589Z,0
2018-08-13T00:10:03.723Z,0
2018-08-13T00:10:29.867Z,0
2018-08-13T00:10:56.004Z,0
2018-08-13T00:11:22.136Z,0
2018-08-13T00:11:48.272Z,0
2018-08-13T00:12:14.435Z,0
2018-08-13T00:12:40.597Z,0
2018-08-13T00:13:06.731Z,0
2018-08-13T00:13:32.867Z,0
2018-08-13T00:13:59.005Z,0
2018-08-13T00:14:25.164Z,0
2018-08-13T00:14:51.318Z,0
2018-08-13T00:15:20.508Z,0
2018-08-13T00:15:46.657Z,0
2018-08-13T00:16:12.796Z,0
2018-08-13T00:16:38.927Z,0
2018-08-13T00:17:05.067Z,0
2018-08-13T00:17:31.214Z,0
2018-08-13T00:17:57.336Z,0
2018-08-13T00:18:23.474Z,0
2018-08-13T00:18:49.615Z,0
2018-08-13T00:19:15.745Z,0
2018-08-13T00:19:41.906Z,0
2018-08-13T00:20:08.057Z,0
2018-08-13T00:20:34.196Z,0
2018-08-13T00:21:00.332Z,0
2018-08-13T00:21:26.489Z,0
2018-08-13T00:21:52.648Z,0
2018-08-13T00:22:18.807Z,0
2018-08-13T00:22:44.943Z,0
2018-08-13T00:23:11.075Z,0
2018-08-13T00:23:37.244Z,0
2018-08-13T00:24:03.377Z,0
2018-08-13T00:24:29.539Z,0
2018-08-13T00:24:55.677Z,0
2018-08-13T00:25:21.837Z,0
2018-08-13T00:25:47.970Z,0
2018-08-13T00:26:14.114Z,0
2018-08-13T00:26:40.260Z,0
2018-08-13T00:27:06.408Z,0
2018-08-13T00:27:32.542Z,0
2018-08-13T00:27:58.680Z,0
2018-08-13T00:28:24.821Z,0
2018-08-13T00:28:50.980Z,0
2018-08-13T00:29:17.112Z,0
2018-08-13T00:29:43.249Z,0
2018-08-13T00:30:09.395Z,0
2018-08-13T00:30:35.526Z,0
2018-08-13T00:31:01.665Z,0
2018-08-13T00:31:27.804Z,0
2018-08-13T00:31:53.939Z,0
2018-08-13T00:32:20.076Z,0
2018-08-13T00:32:46.217Z,0
2018-08-13T00:33:12.353Z,0
2018-08-13T00:33:38.514Z,0
2018-08-13T00:34:04.657Z,0
2018-08-13T00:34:30.787Z,0
2018-08-13T00:34:56.943Z,0
2018-08-13T00:35:23.083Z,0
2018-08-13T00:35:49.222Z,0
2018-08-13T00:36:15.359Z,0
2018-08-13T00:36:41.502Z,0
2018-08-13T00:37:07.653Z,0
2018-08-13T00:37:33.786Z,0
2018-08-13T00:37:59.926Z,0
2018-08-13T00:38:26.088Z,0
2018-08-13T00:38:52.231Z,0
2018-08-13T00:39:18.367Z,0
2018-08-13T00:39:44.526Z,0
2018-08-13T00:40:10.662Z,0
2018-08-13T00:40:36.823Z,0
2018-08-13T00:41:02.955Z,0
2018-08-13T00:41:29.099Z,0
2018-08-13T00:41:55.234Z,0
2018-08-13T00:42:21.369Z,0
2018-08-13T00:42:47.603Z,0
2018-08-13T00:43:13.738Z,0
2018-08-13T00:43:39.901Z,0
2018-08-13T00:44:06.044Z,0
2018-08-13T00:44:32.198Z,0
2018-08-13T00:44:58.333Z,0
2018-08-13T00:45:24.473Z,0
2018-08-13T00:45:50.624Z,0
2018-08-13T00:46:16.770Z,0
2018-08-13T00:46:42.924Z,0
2018-08-13T00:47:09.066Z,0
2018-08-13T00:47:35.199Z,0
2018-08-13T00:48:01.346Z,0
2018-08-13T00:48:27.498Z,0
2018-08-13T00:48:53.667Z,0
2018-08-13T00:49:19.803Z,0
2018-08-13T00:49:45.937Z,0
2018-08-13T00:50:12.071Z,0
2018-08-13T00:50:38.216Z,0
2018-08-13T00:51:04.357Z,0
2018-08-13T00:51:30.507Z,0
2018-08-13T00:51:56.640Z,0
2018-08-13T00:52:22.781Z,0
2018-08-13T00:52:48.915Z,0
2018-08-13T00:53:15.056Z,0
2018-08-13T00:53:41.191Z,0
2018-08-13T00:54:07.324Z,0
2018-08-13T00:54:33.464Z,0
2018-08-13T00:54:59.596Z,0
2018-08-13T00:55:25.769Z,0
2018-08-13T00:55:51.905Z,0
2018-08-13T00:56:18.034Z,0
2018-08-13T00:56:44.173Z,0
2018-08-13T00:57:10.301Z,0
2018-08-13T00:57:36.457Z,0
2018-08-13T00:58:02.627Z,0
2018-08-13T00:58:28.761Z,0
2018-08-13T00:58:54.916Z,0
2018-08-13T00:59:21.071Z,0
2018-08-13T00:59:47.212Z,0
2018-08-13T01:00:13.347Z,0
2018-08-13T01:00:39.486Z,0
2018-08-13T01:01:05.623Z,0
2018-08-13T01:01:31.762Z,0
2018-08-13T01:01:57.902Z,0
2018-08-13T01:02:24.047Z,0
2018-08-13T01:02:50.206Z,0
2018-08-13T01:03:16.374Z,0
2018-08-13T01:03:42.529Z,0
2018-08-13T01:04:08.660Z,0
2018-08-13T01:04:34.799Z,0
2018-08-13T01:05:00.934Z,0
2018-08-13T01:05:27.068Z,0
2018-08-13T01:05:53.205Z,0
2018-08-13T01:06:19.346Z,0
2018-08-13T01:06:45.496Z,0
2018-08-13T01:07:11.639Z,0
2018-08-13T01:07:37.769Z,0
2018-08-13T01:08:03.938Z,0
2018-08-13T01:08:30.091Z,0
2018-08-13T01:08:56.224Z,0
2018-08-13T01:09:22.382Z,0
2018-08-13T01:09:48.553Z,0
2018-08-13T01:10:14.688Z,0
2018-08-13T01:10:40.825Z,0
2018-08-13T01:11:06.982Z,0
2018-08-13T01:11:33.121Z,0
2018-08-13T01:11:59.258Z,0
2018-08-13T01:12:25.390Z,0
2018-08-13T01:12:51.525Z,0
2018-08-13T01:13:17.666Z,0
2018-08-13T01:13:43.806Z,0
2018-08-13T01:14:09.967Z,0
2018-08-13T01:14:36.105Z,0
2018-08-13T01:15:02.242Z,0
2018-08-13T01:15:28.379Z,0
2018-08-13T01:15:54.514Z,0
2018-08-13T01:16:20.653Z,0
2018-08-13T01:16:46.789Z,0
2018-08-13T01:17:12.921Z,0
2018-08-13T01:17:39.057Z,0
2018-08-13T01:18:05.203Z,0
2018-08-13T01:18:31.331Z,0
2018-08-13T01:18:57.465Z,0
2018-08-13T01:19:23.611Z,0
2018-08-13T01:19:49.741Z,0
2018-08-13T01:20:15.878Z,0
2018-08-13T01:20:42.038Z,0
2018-08-13T01:21:08.173Z,0
2018-08-13T01:21:34.320Z,0
2018-08-13T01:22:00.464Z,0
2018-08-13T01:22:26.621Z,0
2018-08-13T01:22:52.755Z,0
2018-08-13T01:23:18.885Z,0
2018-08-13T01:23:45.025Z,0
2018-08-13T01:24:11.158Z,0
2018-08-13T01:24:37.298Z,0
2018-08-13T01:25:03.437Z,0
2018-08-13T01:25:29.571Z,0
2018-08-13T01:25:55.712Z,0
2018-08-13T01:26:21.863Z,0
2018-08-13T01:26:47.994Z,0
2018-08-13T01:27:14.135Z,0
2018-08-13T01:27:40.271Z,0
2018-08-13T01:28:06.435Z,0
2018-08-13T01:28:32.578Z,0
2018-08-13T01:28:58.729Z,0
2018-08-13T01:29:24.859Z,0
2018-08-13T01:29:50.994Z,0
2018-08-13T01:30:17.153Z,0
2018-08-13T01:30:43.285Z,0
2018-08-13T01:31:09.449Z,0
2018-08-13T01:31:35.583Z,0
2018-08-13T01:32:01.725Z,0
2018-08-13T01:32:27.864Z,0
2018-08-13T01:32:53.999Z,0
2018-08-13T01:33:20.136Z,0
2018-08-13T01:33:46.271Z,0
2018-08-13T01:34:12.403Z,0
2018-08-13T01:34:38.543Z,0
2018-08-13T01:35:04.715Z,0
2018-08-13T01:35:30.863Z,0
2018-08-13T01:35:57.000Z,0
2018-08-13T01:36:23.134Z,0
2018-08-13T01:36:49.306Z,0
2018-08-13T01:37:15.441Z,0
2018-08-13T01:37:41.604Z,0
2018-08-13T01:38:07.736Z,0
2018-08-13T01:38:33.876Z,0
2018-08-13T01:39:00.018Z,0
2018-08-13T01:39:26.153Z,0
2018-08-13T01:39:52.285Z,0
2018-08-13T01:40:18.418Z,0
2018-08-13T01:40:44.553Z,0
2018-08-13T01:41:10.694Z,0
2018-08-13T01:41:36.831Z,0
2018-08-13T01:42:02.987Z,0
2018-08-13T01:42:29.120Z,0
2018-08-13T01:42:55.289Z,0
2018-08-13T01:43:21.424Z,0
2018-08-13T01:43:47.559Z,0
2018-08-13T01:44:13.715Z,0
2018-08-13T01:44:39.857Z,0
2018-08-13T01:45:05.994Z,0
2018-08-13T01:45:32.125Z,0
2018-08-13T01:45:58.264Z,0
2018-08-13T01:46:24.399Z,0
2018-08-13T01:46:50.540Z,0
2018-08-13T01:47:16.671Z,0
2018-08-13T01:47:42.825Z,0
2018-08-13T01:48:08.971Z,0
2018-08-13T01:48:35.114Z,0
2018-08-13T01:49:01.246Z,0
2018-08-13T01:49:27.411Z,0
2018-08-13T01:49:53.568Z,0
2018-08-13T01:50:19.711Z,0
2018-08-13T01:50:45.853Z,0
2018-08-13T01:51:12.039Z,0
2018-08-13T01:51:38.167Z,0
2018-08-13T01:52:04.305Z,0
2018-08-13T01:52:30.437Z,0
2018-08-13T01:52:56.580Z,0
2018-08-13T01:53:22.734Z,0
2018-08-13T01:53:48.873Z,0
2018-08-13T01:54:15.034Z,0
2018-08-13T01:54:41.167Z,0
2018-08-13T01:55:07.293Z,0
2018-08-13T01:55:33.457Z,0
2018-08-13T01:55:59.595Z,0
2018-08-13T01:56:25.740Z,0
2018-08-13T01:56:51.868Z,0
2018-08-13T01:57:18.005Z,0
2018-08-13T01:57:44.148Z,0
2018-08-13T01:58:10.284Z,0
2018-08-13T01:58:36.442Z,0
2018-08-13T01:59:02.605Z,0
2018-08-13T01:59:28.744Z,0
2018-08-13T01:59:54.881Z,0
2018-08-13T02:00:21.049Z,0
2018-08-13T02:00:47.178Z,0
2018-08-13T02:01:13.376Z,0
2018-08-13T02:01:39.501Z,0
2018-08-13T02:02:05.609Z,0
2018-08-13T02:02:31.741Z,0
2018-08-13T02:02:57.884Z,0
2018-08-13T02:03:24.020Z,0
2018-08-13T02:03:50.176Z,0
2018-08-13T02:04:16.366Z,0
2018-08-13T02:04:42.499Z,0
2018-08-13T02:05:08.632Z,0
2018-08-13T02:05:34.775Z,0
2018-08-13T02:06:00.951Z,0
2018-08-13T02:06:27.108Z,0
2018-08-13T02:06:53.242Z,0
2018-08-13T02:07:19.384Z,0
2018-08-13T02:07:45.525Z,0
2018-08-13T02:08:11.673Z,0
2018-08-13T02:08:37.805Z,0
2018-08-13T02:09:03.945Z,0
2018-08-13T02:09:30.079Z,0
2018-08-13T02:09:56.214Z,0
2018-08-13T02:10:22.382Z,0
2018-08-13T02:10:48.511Z,0
2018-08-13T02:11:14.653Z,0
2018-08-13T02:11:40.789Z,0
2018-08-13T02:12:06.922Z,0
2018-08-13T02:12:33.060Z,0
2018-08-13T02:12:59.197Z,0
2018-08-13T02:13:25.336Z,0
2018-08-13T02:13:51.476Z,0
2018-08-13T02:14:17.606Z,0
2018-08-13T02:14:43.738Z,0
2018-08-13T02:15:09.873Z,0
2018-08-13T02:15:36.017Z,0
2018-08-13T02:16:02.150Z,0
2018-08-13T02:16:28.287Z,0
2018-08-13T02:16:54.420Z,0
2018-08-13T02:17:20.552Z,0
2018-08-13T02:17:46.690Z,0
2018-08-13T02:18:12.851Z,0
2018-08-13T02:18:38.993Z,0
2018-08-13T02:19:05.121Z,0
2018-08-13T02:19:31.259Z,0
2018-08-13T02:19:57.413Z,0
2018-08-13T02:20:23.539Z,0
2018-08-13T02:20:49.701Z,0
2018-08-13T02:21:15.835Z,0
2018-08-13T02:21:41.987Z,0
2018-08-13T02:22:08.121Z,0
2018-08-13T02:22:34.256Z,0
2018-08-13T02:23:00.420Z,0
2018-08-13T02:23:26.552Z,0
2018-08-13T02:23:52.688Z,0
2018-08-13T02:24:18.828Z,0
2018-08-13T02:24:44.961Z,0
2018-08-13T02:25:11.103Z,0
2018-08-13T02:25:37.243Z,0
2018-08-13T02:26:03.374Z,0
2018-08-13T02:26:29.520Z,0
2018-08-13T02:26:55.654Z,0
2018-08-13T02:27:21.787Z,0
2018-08-13T02:27:47.923Z,0
2018-08-13T02:28:14.065Z,0
2018-08-13T02:28:40.203Z,0
2018-08-13T02:29:06.339Z,0
2018-08-13T02:29:32.494Z,0
2018-08-13T02:29:58.630Z,0
2018-08-13T02:30:24.792Z,0
2018-08-13T02:30:50.921Z,0
2018-08-13T02:31:17.083Z,0
2018-08-13T02:31:43.241Z,0
2018-08-13T02:32:09.399Z,0
2018-08-13T02:32:35.549Z,0
2018-08-13T02:33:01.731Z,0
2018-08-13T02:33:27.893Z,0
2018-08-13T02:33:54.036Z,0
2018-08-13T02:34:20.173Z,0
2018-08-13T02:34:46.361Z,0
2018-08-13T02:35:12.515Z,0
2018-08-13T02:35:38.704Z,0
2018-08-13T02:36:04.849Z,0
2018-08-13T02:36:30.994Z,0
2018-08-13T02:36:57.140Z,0
2018-08-13T02:37:23.278Z,0
2018-08-13T02:37:49.412Z,0
2018-08-13T02:38:15.603Z,0
2018-08-13T02:38:41.739Z,0
2018-08-13T02:39:07.968Z,0
2018-08-13T02:39:34.026Z,0
2018-08-13T02:40:00.171Z,0
2018-08-13T02:40:26.353Z,0
2018-08-13T02:40:52.533Z,0
2018-08-13T02:41:18.616Z,0
2018-08-13T02:41:44.770Z,0
2018-08-13T02:42:10.937Z,0
2018-08-13T02:42:37.126Z,0
2018-08-13T02:43:03.291Z,0
2018-08-13T02:43:29.474Z,0
2018-08-13T02:43:55.632Z,0
2018-08-13T02:44:21.811Z,0
2018-08-13T02:44:47.967Z,0
2018-08-13T02:45:14.129Z,0
2018-08-13T02:45:40.287Z,0
2018-08-13T02:46:06.456Z,0
2018-08-13T02:46:32.644Z,0
2018-08-13T02:46:58.826Z,0
2018-08-13T02:47:24.983Z,0
2018-08-13T02:47:51.124Z,0
2018-08-13T02:48:17.257Z,0
2018-08-13T02:48:43.433Z,0
2018-08-13T02:49:09.598Z,0
2018-08-13T02:49:35.737Z,0
2018-08-13T02:50:01.868Z,0
2018-08-13T02:50:28.024Z,0
2018-08-13T02:50:54.162Z,0
2018-08-13T02:51:20.323Z,0
2018-08-13T02:51:46.504Z,0
2018-08-13T02:52:12.666Z,0
2018-08-13T02:52:38.824Z,0
2018-08-13T02:53:04.985Z,0
2018-08-13T02:53:31.165Z,0
2018-08-13T02:53:57.300Z,0
2018-08-13T02:54:23.437Z,0
2018-08-13T02:54:49.580Z,0
2018-08-13T02:55:15.760Z,0
2018-08-13T02:55:41.896Z,0
2018-08-13T02:56:08.057Z,0
2018-08-13T02:56:34.191Z,0
2018-08-13T02:57:00.361Z,0
2018-08-13T02:57:26.499Z,0
2018-08-13T02:57:52.658Z,0
2018-08-13T02:58:18.833Z,0
2018-08-13T02:58:44.975Z,0
2018-08-13T02:59:11.110Z,0
2018-08-13T02:59:37.249Z,0
2018-08-13T03:00:03.381Z,0
2018-08-13T03:00:29.524Z,0
2018-08-13T03:00:55.689Z,0
2018-08-13T03:01:21.840Z,0
2018-08-13T03:01:47.971Z,0
2018-08-13T03:02:14.131Z,0
2018-08-13T03:02:40.291Z,0
2018-08-13T03:03:06.434Z,0
2018-08-13T03:03:32.566Z,0
2018-08-13T03:03:58.743Z,0
2018-08-13T03:04:24.905Z,0
2018-08-13T03:04:51.072Z,0
2018-08-13T03:05:17.238Z,0
2018-08-13T03:05:43.439Z,0
2018-08-13T03:06:09.579Z,0
2018-08-13T03:06:35.735Z,0
2018-08-13T03:07:01.893Z,0
2018-08-13T03:07:28.025Z,0
2018-08-13T03:07:54.161Z,0
2018-08-13T03:08:20.296Z,0
2018-08-13T03:08:46.451Z,0
2018-08-13T03:09:12.588Z,0
2018-08-13T03:09:38.783Z,0
2018-08-13T03:10:04.937Z,0
2018-08-13T03:10:31.077Z,0
2018-08-13T03:10:57.218Z,0
2018-08-13T03:11:23.391Z,0
2018-08-13T03:11:49.550Z,0
2018-08-13T03:12:15.684Z,0
2018-08-13T03:12:41.814Z,0
2018-08-13T03:13:07.952Z,0
2018-08-13T03:13:34.090Z,0
2018-08-13T03:14:00.221Z,0
2018-08-13T03:14:26.364Z,0
2018-08-13T03:14:52.526Z,0
2018-08-13T03:15:18.720Z,0
2018-08-13T03:15:44.911Z,0
2018-08-13T03:16:11.017Z,0
2018-08-13T03:16:37.155Z,0
2018-08-13T03:17:03.295Z,0
2018-08-13T03:17:29.425Z,0
2018-08-13T03:17:55.605Z,0
2018-08-13T03:18:21.745Z,0
2018-08-13T03:18:47.891Z,0
2018-08-13T03:19:14.053Z,0
2018-08-13T03:19:40.191Z,0
2018-08-13T03:20:06.354Z,0
2018-08-13T03:20:32.486Z,0
2018-08-13T03:20:58.644Z,0
2018-08-13T03:21:24.779Z,0
2018-08-13T03:21:50.911Z,0
2018-08-13T03:22:17.077Z,0
2018-08-13T03:22:43.252Z,0
2018-08-13T03:23:09.417Z,0
2018-08-13T03:23:35.556Z,0
2018-08-13T03:24:01.746Z,0
2018-08-13T03:24:27.950Z,0
2018-08-13T03:24:54.106Z,0
2018-08-13T03:25:20.275Z,0
2018-08-13T03:25:46.430Z,0
2018-08-13T03:26:12.591Z,0
2018-08-13T03:26:38.751Z,0
2018-08-13T03:27:04.910Z,0
2018-08-13T03:27:31.089Z,0
2018-08-13T03:27:57.253Z,0
2018-08-13T03:28:23.387Z,0
2018-08-13T03:28:49.524Z,0
2018-08-13T03:29:15.685Z,0
2018-08-13T03:29:41.819Z,0
2018-08-13T03:30:08.003Z,0
2018-08-13T03:30:34.217Z,0
2018-08-13T03:31:00.476Z,0
2018-08-13T03:31:26.638Z,0
2018-08-13T03:31:52.836Z,0
2018-08-13T03:32:18.990Z,0
2018-08-13T03:32:45.129Z,0
2018-08-13T03:33:11.267Z,0
2018-08-13T03:33:37.577Z,0
2018-08-13T03:34:03.573Z,0
2018-08-13T03:34:29.713Z,0
2018-08-13T03:34:55.859Z,0
2018-08-13T03:35:22.014Z,0
2018-08-13T03:35:48.148Z,0
2018-08-13T03:36:14.285Z,0
2018-08-13T03:36:40.433Z,0
2018-08-13T03:37:06.566Z,0
2018-08-13T03:37:32.700Z,0
2018-08-13T03:37:58.838Z,0
2018-08-13T03:38:24.976Z,0
2018-08-13T03:38:51.109Z,0
2018-08-13T03:39:17.254Z,0
2018-08-13T03:39:43.384Z,0
2018-08-13T03:40:09.520Z,0
2018-08-13T03:40:35.650Z,0
2018-08-13T03:41:01.798Z,0
2018-08-13T03:41:27.927Z,0
2018-08-13T03:41:54.061Z,0
2018-08-13T03:42:20.196Z,0
2018-08-13T03:42:46.325Z,0
2018-08-13T03:43:12.460Z,0
2018-08-13T03:43:38.599Z,0
2018-08-13T03:44:04.735Z,0
2018-08-13T03:44:30.878Z,0
2018-08-13T03:44:57.016Z,0
2018-08-13T03:45:23.149Z,0
2018-08-13T03:45:49.287Z,0
2018-08-13T03:46:15.419Z,0
2018-08-13T03:46:41.561Z,0
2018-08-13T03:47:07.718Z,0
2018-08-13T03:47:33.851Z,0
2018-08-13T03:47:59.983Z,0
2018-08-13T03:48:26.120Z,0
2018-08-13T03:48:52.290Z,0
2018-08-13T03:49:18.424Z,0
2018-08-13T03:49:44.584Z,0
2018-08-13T03:50:10.715Z,0
2018-08-13T03:50:36.904Z,0
2018-08-13T03:51:03.031Z,0
2018-08-13T03:51:29.166Z,0
2018-08-13T03:51:55.307Z,0
2018-08-13T03:52:21.444Z,0
2018-08-13T03:52:47.573Z,0
2018-08-13T03:53:13.713Z,0
2018-08-13T03:53:39.895Z,0
2018-08-13T03:54:06.011Z,0
2018-08-13T03:54:32.140Z,0
2018-08-13T03:54:58.287Z,0
2018-08-13T03:55:24.421Z,0
2018-08-13T03:55:50.555Z,0
2018-08-13T03:56:16.717Z,0
2018-08-13T03:56:42.850Z,0
2018-08-13T03:57:08.994Z,0
2018-08-13T03:57:35.135Z,0
2018-08-13T03:58:01.309Z,0
2018-08-13T03:58:27.473Z,0
2018-08-13T03:58:53.604Z,0
2018-08-13T03:59:19.734Z,0
2018-08-13T03:59:45.872Z,0
2018-08-13T04:00:12.012Z,0
2018-08-13T04:00:38.146Z,0
2018-08-13T04:01:04.283Z,0
2018-08-13T04:01:30.418Z,0
2018-08-13T04:01:56.551Z,0
2018-08-13T04:02:22.693Z,0
2018-08-13T04:02:48.833Z,0
2018-08-13T04:03:14.969Z,0
2018-08-13T04:03:41.108Z,0
2018-08-13T04:04:07.242Z,0
2018-08-13T04:04:33.381Z,5
2018-08-13T04:04:59.535Z,5
2018-08-13T04:05:25.701Z,5
2018-08-13T04:05:51.841Z,5
2018-08-13T04:06:18.005Z,5
2018-08-13T04:06:44.134Z,5
2018-08-13T04:07:10.306Z,5
2018-08-13T04:07:36.442Z,5
2018-08-13T04:08:02.578Z,5
2018-08-13T04:08:28.720Z,5
2018-08-13T04:08:54.903Z,5
2018-08-13T04:09:21.033Z,5
2018-08-13T04:09:47.195Z,5
2018-08-13T04:10:13.351Z,5
2018-08-13T04:10:39.494Z,5
2018-08-13T04:11:05.624Z,5
2018-08-13T04:11:31.791Z,5
2018-08-13T04:11:57.925Z,5
2018-08-13T04:12:24.064Z,5
2018-08-13T04:12:50.229Z,5
2018-08-13T04:13:16.352Z,5
2018-08-13T04:13:42.520Z,5
2018-08-13T04:14:08.685Z,5
2018-08-13T04:14:34.821Z,5
2018-08-13T04:15:00.959Z,5
2018-08-13T04:15:27.092Z,5
2018-08-13T04:15:53.229Z,5
2018-08-13T04:16:19.370Z,5
2018-08-13T04:16:45.506Z,5
2018-08-13T04:17:11.640Z,5
2018-08-13T04:17:37.772Z,5
2018-08-13T04:18:03.913Z,5
2018-08-13T04:18:30.057Z,5
2018-08-13T04:18:56.191Z,5
2018-08-13T04:19:22.330Z,5
2018-08-13T04:19:48.466Z,5
2018-08-13T04:20:14.601Z,5
2018-08-13T04:20:40.731Z,5
2018-08-13T04:21:06.874Z,5
2018-08-13T04:21:33.009Z,10
2018-08-13T04:21:59.148Z,10
2018-08-13T04:22:25.323Z,10
2018-08-13T04:22:51.467Z,10
2018-08-13T04:23:17.604Z,10
2018-08-13T04:23:43.741Z,10
2018-08-13T04:24:09.870Z,10
2018-08-13T04:24:36.012Z,10
2018-08-13T04:25:02.144Z,10
2018-08-13T04:25:28.283Z,10
2018-08-13T04:25:54.415Z,15
2018-08-13T04:26:20.570Z,15
2018-08-13T04:26:46.756Z,15
2018-08-13T04:27:12.886Z,15
2018-08-13T04:27:39.044Z,15
2018-08-13T04:28:05.184Z,15
2018-08-13T04:28:31.310Z,20
2018-08-13T04:28:57.445Z,20
2018-08-13T04:29:23.589Z,20
2018-08-13T04:29:49.719Z,20
2018-08-13T04:30:15.862Z,25
2018-08-13T04:30:41.999Z,25
2018-08-13T04:31:08.166Z,25
2018-08-13T04:31:34.302Z,25
2018-08-13T04:32:00.434Z,25
2018-08-13T04:32:26.576Z,30
2018-08-13T04:32:52.746Z,30
2018-08-13T04:33:18.870Z,35
2018-08-13T04:33:45.002Z,35
2018-08-13T04:34:11.142Z,35
2018-08-13T04:34:37.300Z,40
2018-08-13T04:35:03.435Z,45
2018-08-13T04:35:29.593Z,45
2018-08-13T04:35:55.723Z,45
2018-08-13T04:36:21.871Z,45
2018-08-13T04:36:48.002Z,50
2018-08-13T04:37:14.173Z,55
2018-08-13T04:37:40.325Z,55
2018-08-13T04:38:06.457Z,60
2018-08-13T04:38:32.630Z,60
2018-08-13T04:38:58.731Z,65
2018-08-13T04:39:24.869Z,65
2018-08-13T04:39:51.005Z,70
2018-08-13T04:40:17.164Z,70
2018-08-13T04:40:43.309Z,75
2018-08-13T04:41:09.463Z,75
2018-08-13T04:41:35.600Z,80
2018-08-13T04:42:01.735Z,80
2018-08-13T04:42:27.875Z,80
2018-08-13T04:42:54.014Z,80
2018-08-13T04:43:20.150Z,80
2018-08-13T04:43:46.291Z,80
2018-08-13T04:44:12.424Z,80
2018-08-13T04:44:38.585Z,85
2018-08-13T04:45:04.722Z,85
2018-08-13T04:45:30.864Z,85
2018-08-13T04:45:57.039Z,80
2018-08-13T04:46:23.179Z,85
2018-08-13T04:46:49.307Z,85
2018-08-13T04:47:15.446Z,80
2018-08-13T04:47:41.602Z,80
2018-08-13T04:48:07.737Z,75
2018-08-13T04:48:33.878Z,75
2018-08-13T04:49:00.019Z,70
2018-08-13T04:49:26.156Z,70
2018-08-13T04:49:52.289Z,70
2018-08-13T04:50:18.447Z,70
2018-08-13T04:50:44.610Z,70
2018-08-13T04:51:10.739Z,65
2018-08-13T04:51:36.877Z,65
2018-08-13T04:52:03.027Z,65
2018-08-13T04:52:29.169Z,65
2018-08-13T04:52:55.306Z,60
2018-08-13T04:53:21.467Z,60
2018-08-13T04:53:47.607Z,55
2018-08-13T04:54:13.739Z,55
2018-08-13T04:54:39.880Z,55
2018-08-13T04:55:06.016Z,50
2018-08-13T04:55:32.181Z,50
2018-08-13T04:55:58.347Z,45
2018-08-13T04:56:24.480Z,45
2018-08-13T04:56:50.621Z,45
2018-08-13T04:57:16.754Z,50
2018-08-13T04:57:42.903Z,45
2018-08-13T04:58:09.061Z,45
2018-08-13T04:58:35.222Z,45
2018-08-13T04:59:01.451Z,40
2018-08-13T04:59:27.499Z,40
2018-08-13T04:59:53.638Z,35
2018-08-13T05:00:19.824Z,35
2018-08-13T05:00:45.982Z,35
2018-08-13T05:01:12.115Z,30
2018-08-13T05:01:38.254Z,30
2018-08-13T05:02:04.390Z,30
2018-08-13T05:02:30.530Z,30
2018-08-13T05:02:56.684Z,30
2018-08-13T05:03:22.819Z,30
2018-08-13T05:03:49.022Z,30
2018-08-13T05:04:15.174Z,30
2018-08-13T05:04:41.316Z,30
2018-08-13T05:05:07.449Z,30
2018-08-13T05:05:33.590Z,30
2018-08-13T05:05:59.721Z,30
2018-08-13T05:06:25.858Z,30
2018-08-13T05:06:51.997Z,30
2018-08-13T05:07:18.180Z,30
2018-08-13T05:07:44.294Z,30
2018-08-13T05:08:10.437Z,30
2018-08-13T05:08:36.569Z,30
2018-08-13T05:09:02.726Z,30
2018-08-13T05:09:28.860Z,30
2018-08-13T05:09:54.996Z,35
2018-08-13T05:10:21.180Z,35
2018-08-13T05:10:47.344Z,40
2018-08-13T05:11:13.482Z,40
2018-08-13T05:11:39.614Z,40
2018-08-13T05:12:05.758Z,45
2018-08-13T05:12:31.909Z,45
2018-08-13T05:12:58.051Z,50
2018-08-13T05:13:24.192Z,50
2018-08-13T05:13:50.346Z,55
2018-08-13T05:14:16.477Z,55
2018-08-13T05:14:42.644Z,60
2018-08-13T05:15:08.778Z,60
2018-08-13T05:15:34.920Z,60
2018-08-13T05:16:01.062Z,60
2018-08-13T05:16:27.192Z,60
2018-08-13T05:16:53.324Z,60
2018-08-13T05:17:19.465Z,60
2018-08-13T05:17:45.634Z,60
2018-08-13T05:18:11.766Z,60
2018-08-13T05:18:37.907Z,60
2018-08-13T05:19:04.035Z,60
2018-08-13T05:19:30.169Z,65
2018-08-13T05:19:56.304Z,65
2018-08-13T05:20:22.444Z,65
2018-08-13T05:20:48.602Z,65
2018-08-13T05:21:14.813Z,70
2018-08-13T05:21:40.905Z,70
2018-08-13T05:22:07.041Z,70
2018-08-13T05:22:33.175Z,70
2018-08-13T05:22:59.356Z,75
2018-08-13T05:23:25.493Z,75
2018-08-13T05:23:51.658Z,75
2018-08-13T05:24:17.788Z,75
2018-08-13T05:24:43.928Z,75
2018-08-13T05:25:10.084Z,80
2018-08-13T05:25:36.234Z,80
2018-08-13T05:26:02.360Z,80
2018-08-13T05:26:28.495Z,85
2018-08-13T05:26:54.647Z,90
2018-08-13T05:27:20.804Z,90
2018-08-13T05:27:46.938Z,95
2018-08-13T05:28:13.083Z,95
2018-08-13T05:28:39.220Z,95
2018-08-13T05:29:05.380Z,95
2018-08-13T05:29:31.512Z,95
2018-08-13T05:29:57.704Z,95
2018-08-13T05:30:23.907Z,95
2018-08-13T05:30:49.982Z,95
2018-08-13T05:31:16.119Z,95
2018-08-13T05:31:42.257Z,90
2018-08-13T05:32:08.396Z,90
2018-08-13T05:32:34.530Z,90
2018-08-13T05:33:00.685Z,90
2018-08-13T05:33:26.839Z,90
2018-08-13T05:33:53.005Z,90
2018-08-13T05:34:19.141Z,90
2018-08-13T05:34:45.296Z,85
2018-08-13T05:35:11.433Z,85
2018-08-13T05:35:37.567Z,85
2018-08-13T05:36:03.719Z,85
2018-08-13T05:36:29.883Z,85
2018-08-13T05:36:56.024Z,85
2018-08-13T05:37:22.176Z,85
2018-08-13T05:37:48.319Z,85
2018-08-13T05:38:14.504Z,80
2018-08-13T05:38:40.605Z,80
2018-08-13T05:39:06.763Z,80
2018-08-13T05:39:32.893Z,80
2018-08-13T05:39:59.031Z,80
2018-08-13T05:40:25.170Z,80
2018-08-13T05:40:51.301Z,80
2018-08-13T05:41:17.442Z,80
2018-08-13T05:41:43.577Z,80
2018-08-13T05:42:09.709Z,80
2018-08-13T05:42:35.870Z,80
2018-08-13T05:43:01.997Z,80
2018-08-13T05:43:28.136Z,85
2018-08-13T05:43:54.274Z,85
2018-08-13T05:44:20.431Z,85
2018-08-13T05:44:46.569Z,85
2018-08-13T05:45:12.698Z,85
2018-08-13T05:45:38.831Z,85
2018-08-13T05:46:04.968Z,85
2018-08-13T05:46:31.104Z,85
2018-08-13T05:46:57.237Z,85
2018-08-13T05:47:23.375Z,85
2018-08-13T05:47:49.530Z,85
2018-08-13T05:48:15.683Z,85
2018-08-13T05:48:41.815Z,90
2018-08-13T05:49:07.957Z,90
2018-08-13T05:49:34.101Z,95
2018-08-13T05:50:00.243Z,95
2018-08-13T05:50:26.368Z,95
2018-08-13T05:50:52.509Z,100
2018-08-13T05:51:18.650Z,100
2018-08-13T05:51:44.784Z,105
2018-08-13T05:52:10.927Z,105
2018-08-13T05:52:37.062Z,105
2018-08-13T05:53:03.271Z,105
2018-08-13T05:53:29.329Z,110
2018-08-13T05:53:55.465Z,110
2018-08-13T05:54:21.623Z,110
2018-08-13T05:54:47.761Z,110
2018-08-13T05:55:13.917Z,110
2018-08-13T05:55:40.077Z,110
2018-08-13T05:56:06.217Z,110
2018-08-13T05:56:32.352Z,110
2018-08-13T05:56:58.512Z,110
2018-08-13T05:57:24.646Z,110
2018-08-13T05:57:50.781Z,110
2018-08-13T05:58:16.945Z,110
2018-08-13T05:58:43.083Z,110
2018-08-13T05:59:09.218Z,110
2018-08-13T05:59:35.357Z,110
2018-08-13T06:00:01.492Z,110
2018-08-13T06:00:27.649Z,110
2018-08-13T06:00:53.781Z,105
2018-08-13T06:01:19.914Z,105
2018-08-13T06:01:46.050Z,105
2018-08-13T06:02:12.186Z,105
2018-08-13T06:02:38.325Z,105
2018-08-13T06:03:04.553Z,105
2018-08-13T06:03:30.643Z,105
2018-08-13T06:03:56.807Z,105
2018-08-13T06:04:22.937Z,105
2018-08-13T06:04:49.111Z,105
2018-08-13T06:05:15.208Z,105
2018-08-13T06:05:41.340Z,105
2018-08-13T06:06:07.477Z,110
2018-08-13T06:06:33.622Z,110
2018-08-13T06:06:59.750Z,110
2018-08-13T06:07:25.914Z,115
2018-08-13T06:07:52.047Z,115
2018-08-13T06:08:18.185Z,120
2018-08-13T06:08:44.316Z,120
2018-08-13T06:09:10.481Z,120
2018-08-13T06:09:36.614Z,120
2018-08-13T06:10:02.751Z,120
2018-08-13T06:10:28.882Z,120
2018-08-13T06:10:55.027Z,120
2018-08-13T06:11:21.228Z,120
2018-08-13T06:11:47.310Z,120
2018-08-13T06:12:13.443Z,120
2018-08-13T06:12:39.584Z,120
2018-08-13T06:13:05.715Z,120
2018-08-13T06:13:31.838Z,120
2018-08-13T06:13:57.978Z,120
2018-08-13T06:14:24.138Z,120
2018-08-13T06:14:50.278Z,120
2018-08-13T06:15:16.426Z,120
2018-08-13T06:15:42.550Z,120
2018-08-13T06:16:08.680Z,120
2018-08-13T06:16:34.826Z,120
2018-08-13T06:17:00.992Z,120
2018-08-13T06:17:27.159Z,120
2018-08-13T06:17:53.294Z,120
2018-08-13T06:18:19.469Z,120
2018-08-13T06:18:45.637Z,125
2018-08-13T06:19:11.770Z,125
2018-08-13T06:19:37.906Z,130
2018-08-13T06:20:04.065Z,135
2018-08-13T06:20:30.208Z,135
2018-08-13T06:20:56.342Z,140